sensor_id;sensor_type;location;lat;lon;timestamp;pressure;altitude;pressure_sealevel;temperature;humidity
71465;BME280;59274;49.874;9.154;2023-02-03T00:00:52;101479.84;;;6.99;100.00
71465;BME280;59274;49.874;9.154;2023-02-03T00:03:17;101489.19;;;6.93;100.00
71465;BME280;59274;49.874;9.154;2023-02-03T00:05:43;101483.00;;;6.92;100.00
71465;BME280;59274;49.874;9.154;2023-02-03T00:08:10;101493.31;;;6.90;100.00
71465;BME280;59274;49.874;9.154;2023-02-03T00:10:36;101498.91;;;6.94;100.00
71465;BME280;59274;49.874;9.154;2023-02-03T00:13:03;101509.84;;;6.97;100.00
71465;BME280;59274;49.874;9.154;2023-02-03T00:15:29;101505.41;;;7.01;100.00
71465;BME280;59274;49.874;9.154;2023-02-03T00:17:54;101504.78;;;7.04;100.00
71465;BME280;59274;49.874;9.154;2023-02-03T00:20:20;101491.75;;;7.06;100.00
71465;BME280;59274;49.874;9.154;2023-02-03T00:22:45;101475.22;;;7.08;99.84
71465;BME280;59274;49.874;9.154;2023-02-03T00:25:10;101477.78;;;7.13;99.53
71465;BME280;59274;49.874;9.154;2023-02-03T00:27:36;101468.25;;;7.07;99.79
71465;BME280;59274;49.874;9.154;2023-02-03T00:30:02;101474.25;;;7.04;100.00
71465;BME280;59274;49.874;9.154;2023-02-03T00:32:28;101473.63;;;7.07;99.81
71465;BME280;59274;49.874;9.154;2023-02-03T00:34:53;101476.50;;;7.11;99.72
71465;BME280;59274;49.874;9.154;2023-02-03T00:37:19;101461.88;;;7.12;99.90
71465;BME280;59274;49.874;9.154;2023-02-03T00:39:44;101451.06;;;7.12;99.77
71465;BME280;59274;49.874;9.154;2023-02-03T00:42:10;101456.00;;;7.10;100.00
71465;BME280;59274;49.874;9.154;2023-02-03T00:44:35;101448.06;;;7.13;99.91
71465;BME280;59274;49.874;9.154;2023-02-03T00:47:01;101449.47;;;7.19;99.58
71465;BME280;59274;49.874;9.154;2023-02-03T00:49:29;101451.72;;;7.17;99.47
71465;BME280;59274;49.874;9.154;2023-02-03T00:51:54;101471.25;;;7.14;100.00
71465;BME280;59274;49.874;9.154;2023-02-03T00:54:19;101476.03;;;7.17;99.77
71465;BME280;59274;49.874;9.154;2023-02-03T00:56:45;101468.38;;;7.19;100.00
71465;BME280;59274;49.874;9.154;2023-02-03T00:59:10;101473.66;;;7.24;99.56
71465;BME280;59274;49.874;9.154;2023-02-03T01:01:36;101472.69;;;7.29;99.96
71465;BME280;59274;49.874;9.154;2023-02-03T01:04:02;101469.81;;;7.25;100.00
71465;BME280;59274;49.874;9.154;2023-02-03T01:06:28;101471.41;;;7.18;100.00
71465;BME280;59274;49.874;9.154;2023-02-03T01:08:54;101468.38;;;7.19;100.00
71465;BME280;59274;49.874;9.154;2023-02-03T01:11:26;101463.47;;;7.21;99.63
71465;BME280;59274;49.874;9.154;2023-02-03T01:13:54;101462.66;;;7.21;100.00
71465;BME280;59274;49.874;9.154;2023-02-03T01:16:22;101455.06;;;7.23;99.91
71465;BME280;59274;49.874;9.154;2023-02-03T01:18:48;101440.44;;;7.24;99.74
71465;BME280;59274;49.874;9.154;2023-02-03T01:21:20;101429.63;;;7.24;99.80
71465;BME280;59274;49.874;9.154;2023-02-03T01:23:46;101422.16;;;7.21;100.00
71465;BME280;59274;49.874;9.154;2023-02-03T01:26:14;101407.22;;;7.15;100.00
71465;BME280;59274;49.874;9.154;2023-02-03T01:28:40;101397.22;;;7.06;100.00
71465;BME280;59274;49.874;9.154;2023-02-03T01:31:24;101397.38;;;7.01;100.00
71465;BME280;59274;49.874;9.154;2023-02-03T01:33:51;101402.78;;;6.93;100.00
71465;BME280;59274;49.874;9.154;2023-02-03T01:36:17;101389.28;;;6.93;100.00
71465;BME280;59274;49.874;9.154;2023-02-03T01:38:43;101372.91;;;6.98;100.00
71465;BME280;59274;49.874;9.154;2023-02-03T01:41:15;101379.44;;;6.97;100.00
71465;BME280;59274;49.874;9.154;2023-02-03T01:43:44;101403.09;;;7.00;100.00
71465;BME280;59274;49.874;9.154;2023-02-03T01:46:32;101426.78;;;7.03;100.00
71465;BME280;59274;49.874;9.154;2023-02-03T01:51:34;101412.78;;;7.10;100.00
71465;BME280;59274;49.874;9.154;2023-02-03T01:54:00;101414.53;;;7.14;100.00
71465;BME280;59274;49.874;9.154;2023-02-03T01:56:29;101394.69;;;7.10;100.00
71465;BME280;59274;49.874;9.154;2023-02-03T01:58:57;101400.09;;;7.10;100.00
71465;BME280;59274;49.874;9.154;2023-02-03T02:01:24;101403.88;;;7.18;100.00
71465;BME280;59274;49.874;9.154;2023-02-03T02:03:55;101395.63;;;7.14;100.00
71465;BME280;59274;49.874;9.154;2023-02-03T02:06:23;101382.41;;;7.21;99.16
71465;BME280;59274;49.874;9.154;2023-02-03T02:08:51;101374.13;;;7.26;99.29
71465;BME280;59274;49.874;9.154;2023-02-03T02:11:17;101369.53;;;7.27;99.36
71465;BME280;59274;49.874;9.154;2023-02-03T02:13:46;101385.41;;;7.28;98.81
71465;BME280;59274;49.874;9.154;2023-02-03T02:21:42;101388.13;;;7.28;99.07
71465;BME280;59274;49.874;9.154;2023-02-03T02:39:02;101374.75;;;7.32;98.58
71465;BME280;59274;49.874;9.154;2023-02-03T02:41:38;101380.50;;;7.30;99.10
71465;BME280;59274;49.874;9.154;2023-02-03T02:44:30;101393.34;;;7.33;98.13
71465;BME280;59274;49.874;9.154;2023-02-03T02:47:00;101397.31;;;7.36;98.47
71465;BME280;59274;49.874;9.154;2023-02-03T02:52:04;101383.94;;;7.39;98.42
71465;BME280;59274;49.874;9.154;2023-02-03T02:54:32;101383.31;;;7.42;98.49
71465;BME280;59274;49.874;9.154;2023-02-03T02:57:03;101396.53;;;7.35;98.77
71465;BME280;59274;49.874;9.154;2023-02-03T02:59:29;101404.47;;;7.40;98.62
71465;BME280;59274;49.874;9.154;2023-02-03T03:01:55;101395.41;;;7.36;99.12
71465;BME280;59274;49.874;9.154;2023-02-03T03:04:24;101401.59;;;7.45;98.44
71465;BME280;59274;49.874;9.154;2023-02-03T03:07:16;101386.94;;;7.46;98.07
71465;BME280;59274;49.874;9.154;2023-02-03T03:09:43;101402.56;;;7.41;98.08
71465;BME280;59274;49.874;9.154;2023-02-03T03:12:20;101407.16;;;7.40;98.91
71465;BME280;59274;49.874;9.154;2023-02-03T03:14:53;101407.66;;;7.42;98.43
71465;BME280;59274;49.874;9.154;2023-02-03T03:17:25;101405.75;;;7.43;98.72
71465;BME280;59274;49.874;9.154;2023-02-03T03:19:55;101404.47;;;7.40;99.36
71465;BME280;59274;49.874;9.154;2023-02-03T03:22:26;101401.75;;;7.40;100.00
71465;BME280;59274;49.874;9.154;2023-02-03T03:24:59;101411.81;;;7.31;100.00
71465;BME280;59274;49.874;9.154;2023-02-03T03:27:30;101414.50;;;7.31;100.00
71465;BME280;59274;49.874;9.154;2023-02-03T03:30:01;101416.25;;;7.27;100.00
71465;BME280;59274;49.874;9.154;2023-02-03T03:32:29;101414.22;;;7.24;100.00
71465;BME280;59274;49.874;9.154;2023-02-03T03:34:57;101419.75;;;7.28;100.00
71465;BME280;59274;49.874;9.154;2023-02-03T03:37:42;101411.16;;;7.26;100.00
71465;BME280;59274;49.874;9.154;2023-02-03T03:40:16;101426.91;;;7.24;100.00
71465;BME280;59274;49.874;9.154;2023-02-03T03:42:56;101413.25;;;7.20;100.00
71465;BME280;59274;49.874;9.154;2023-02-03T03:50:34;101409.91;;;7.23;100.00
71465;BME280;59274;49.874;9.154;2023-02-03T03:53:03;101398.47;;;7.18;100.00
71465;BME280;59274;49.874;9.154;2023-02-03T03:55:31;101391.50;;;7.08;100.00
71465;BME280;59274;49.874;9.154;2023-02-03T03:58:08;101385.47;;;6.94;100.00
71465;BME280;59274;49.874;9.154;2023-02-03T04:00:37;101378.47;;;6.84;100.00
71465;BME280;59274;49.874;9.154;2023-02-03T04:03:13;101378.97;;;6.78;100.00
71465;BME280;59274;49.874;9.154;2023-02-03T04:05:40;101396.75;;;6.79;100.00
71465;BME280;59274;49.874;9.154;2023-02-03T04:08:05;101412.16;;;6.78;100.00
71465;BME280;59274;49.874;9.154;2023-02-03T04:10:39;101406.44;;;6.80;100.00
71465;BME280;59274;49.874;9.154;2023-02-03T04:13:07;101395.66;;;6.80;100.00
71465;BME280;59274;49.874;9.154;2023-02-03T04:15:33;101381.97;;;6.85;100.00
71465;BME280;59274;49.874;9.154;2023-02-03T04:17:59;101368.47;;;6.85;100.00
71465;BME280;59274;49.874;9.154;2023-02-03T04:20:29;101379.91;;;6.90;100.00
71465;BME280;59274;49.874;9.154;2023-02-03T04:22:56;101364.19;;;6.92;100.00
71465;BME280;59274;49.874;9.154;2023-02-03T04:25:22;101373.72;;;6.90;100.00
71465;BME280;59274;49.874;9.154;2023-02-03T04:27:48;101385.47;;;6.94;100.00
71465;BME280;59274;49.874;9.154;2023-02-03T04:30:14;101396.09;;;6.99;100.00
71465;BME280;59274;49.874;9.154;2023-02-03T04:32:39;101387.38;;;7.02;100.00
71465;BME280;59274;49.874;9.154;2023-02-03T04:35:06;101397.38;;;7.10;100.00
71465;BME280;59274;49.874;9.154;2023-02-03T04:37:32;101403.41;;;7.16;100.00
71465;BME280;59274;49.874;9.154;2023-02-03T04:39:57;101393.53;;;7.20;100.00
71465;BME280;59274;49.874;9.154;2023-02-03T04:42:23;101377.19;;;7.16;100.00
71465;BME280;59274;49.874;9.154;2023-02-03T04:44:49;101386.88;;;7.17;100.00
71465;BME280;59274;49.874;9.154;2023-02-03T04:47:15;101378.13;;;7.29;100.00
71465;BME280;59274;49.874;9.154;2023-02-03T04:49:40;101379.69;;;7.30;100.00
71465;BME280;59274;49.874;9.154;2023-02-03T04:52:06;101386.53;;;7.27;100.00
71465;BME280;59274;49.874;9.154;2023-02-03T04:54:31;101381.44;;;7.26;100.00
71465;BME280;59274;49.874;9.154;2023-02-03T04:56:57;101372.72;;;7.29;100.00
71465;BME280;59274;49.874;9.154;2023-02-03T04:59:22;101390.66;;;7.25;100.00
71465;BME280;59274;49.874;9.154;2023-02-03T05:01:48;101401.16;;;7.26;100.00
71465;BME280;59274;49.874;9.154;2023-02-03T05:04:13;101398.13;;;7.36;100.00
71465;BME280;59274;49.874;9.154;2023-02-03T05:06:39;101393.03;;;7.35;100.00
71465;BME280;59274;49.874;9.154;2023-02-03T05:09:05;101389.41;;;7.31;100.00
71465;BME280;59274;49.874;9.154;2023-02-03T05:11:30;101406.41;;;7.31;100.00
71465;BME280;59274;49.874;9.154;2023-02-03T05:13:56;101386.06;;;7.25;100.00
71465;BME280;59274;49.874;9.154;2023-02-03T05:16:22;101387.19;;;7.24;100.00
71465;BME280;59274;49.874;9.154;2023-02-03T05:18:47;101384.94;;;7.26;100.00
71465;BME280;59274;49.874;9.154;2023-02-03T05:21:12;101376.22;;;7.21;100.00
71465;BME280;59274;49.874;9.154;2023-02-03T05:23:38;101363.34;;;7.18;100.00
71465;BME280;59274;49.874;9.154;2023-02-03T05:26:03;101362.72;;;7.12;100.00
71465;BME280;59274;49.874;9.154;2023-02-03T05:28:29;101368.91;;;7.13;100.00
71465;BME280;59274;49.874;9.154;2023-02-03T05:30:57;101364.31;;;7.13;100.00
71465;BME280;59274;49.874;9.154;2023-02-03T05:33:23;101357.63;;;7.11;100.00
71465;BME280;59274;49.874;9.154;2023-02-03T05:35:48;101352.72;;;7.13;100.00
71465;BME280;59274;49.874;9.154;2023-02-03T05:38:13;101358.72;;;7.18;100.00
71465;BME280;59274;49.874;9.154;2023-02-03T05:40:39;101360.81;;;7.21;100.00
71465;BME280;59274;49.874;9.154;2023-02-03T05:43:23;101363.19;;;7.23;100.00
71465;BME280;59274;49.874;9.154;2023-02-03T05:45:48;101359.69;;;7.22;100.00
71465;BME280;59274;49.874;9.154;2023-02-03T05:48:14;101344.91;;;7.20;100.00
71465;BME280;59274;49.874;9.154;2023-02-03T05:50:39;101343.63;;;7.26;100.00
71465;BME280;59274;49.874;9.154;2023-02-03T05:53:06;101345.69;;;7.29;100.00
71465;BME280;59274;49.874;9.154;2023-02-03T05:55:33;101350.13;;;7.33;99.75
71465;BME280;59274;49.874;9.154;2023-02-03T05:57:58;101340.91;;;7.34;99.46
71465;BME280;59274;49.874;9.154;2023-02-03T06:00:25;101347.09;;;7.35;99.38
71465;BME280;59274;49.874;9.154;2023-02-03T06:02:58;101338.38;;;7.29;100.00
71465;BME280;59274;49.874;9.154;2023-02-03T06:05:25;101336.91;;;7.32;100.00
71465;BME280;59274;49.874;9.154;2023-02-03T06:07:51;101342.66;;;7.30;100.00
71465;BME280;59274;49.874;9.154;2023-02-03T06:10:16;101355.53;;;7.25;100.00
71465;BME280;59274;49.874;9.154;2023-02-03T06:12:42;101347.59;;;7.28;100.00
71465;BME280;59274;49.874;9.154;2023-02-03T06:15:08;101354.09;;;7.27;100.00
71465;BME280;59274;49.874;9.154;2023-02-03T06:17:34;101359.84;;;7.26;100.00
71465;BME280;59274;49.874;9.154;2023-02-03T06:20:07;101343.00;;;7.20;100.00
71465;BME280;59274;49.874;9.154;2023-02-03T06:22:33;101357.00;;;7.22;100.00
71465;BME280;59274;49.874;9.154;2023-02-03T06:24:59;101339.00;;;7.26;100.00
71465;BME280;59274;49.874;9.154;2023-02-03T06:27:25;101347.59;;;7.28;100.00
71465;BME280;59274;49.874;9.154;2023-02-03T06:29:51;101345.38;;;7.22;100.00
71465;BME280;59274;49.874;9.154;2023-02-03T06:32:16;101340.47;;;7.24;100.00
71465;BME280;59274;49.874;9.154;2023-02-03T06:34:42;101338.41;;;7.21;100.00
71465;BME280;59274;49.874;9.154;2023-02-03T06:37:07;101328.88;;;7.23;100.00
71465;BME280;59274;49.874;9.154;2023-02-03T06:39:33;101328.53;;;7.25;99.79
71465;BME280;59274;49.874;9.154;2023-02-03T06:41:58;101330.59;;;7.28;99.70
71465;BME280;59274;49.874;9.154;2023-02-03T06:44:24;101330.75;;;7.31;99.64
71465;BME280;59274;49.874;9.154;2023-02-03T06:46:50;101331.88;;;7.30;99.38
71465;BME280;59274;49.874;9.154;2023-02-03T06:49:16;101328.50;;;7.33;99.23
71465;BME280;59274;49.874;9.154;2023-02-03T06:51:42;101349.16;;;7.38;99.17
71465;BME280;59274;49.874;9.154;2023-02-03T06:54:09;101334.50;;;7.39;98.55
71465;BME280;59274;49.874;9.154;2023-02-03T06:56:35;101342.00;;;7.42;98.05
71465;BME280;59274;49.874;9.154;2023-02-03T06:59:00;101357.28;;;7.38;98.89
71465;BME280;59274;49.874;9.154;2023-02-03T07:01:26;101356.47;;;7.37;98.64
71465;BME280;59274;49.874;9.154;2023-02-03T07:03:51;101371.41;;;7.35;98.88
71465;BME280;59274;49.874;9.154;2023-02-03T07:06:17;101373.00;;;7.36;98.88
71465;BME280;59274;49.874;9.154;2023-02-03T07:08:42;101379.03;;;7.41;98.00
71465;BME280;59274;49.874;9.154;2023-02-03T07:11:08;101377.91;;;7.42;98.25
71465;BME280;59274;49.874;9.154;2023-02-03T07:13:34;101386.34;;;7.41;98.22
71465;BME280;59274;49.874;9.154;2023-02-03T07:15:59;101380.00;;;7.45;97.79
71465;BME280;59274;49.874;9.154;2023-02-03T07:18:25;101382.53;;;7.42;98.36
71465;BME280;59274;49.874;9.154;2023-02-03T07:20:51;101366.13;;;7.47;97.81
71465;BME280;59274;49.874;9.154;2023-02-03T07:23:17;101376.13;;;7.46;98.00
71465;BME280;59274;49.874;9.154;2023-02-03T07:25:43;101375.22;;;7.42;98.48
71465;BME280;59274;49.874;9.154;2023-02-03T07:28:08;101380.63;;;7.42;98.50
71465;BME280;59274;49.874;9.154;2023-02-03T07:30:34;101370.72;;;7.46;97.43
71465;BME280;59274;49.874;9.154;2023-02-03T07:32:59;101389.94;;;7.54;97.06
71465;BME280;59274;49.874;9.154;2023-02-03T07:35:25;101376.00;;;7.52;97.17
71465;BME280;59274;49.874;9.154;2023-02-03T07:37:51;101373.28;;;7.52;97.28
71465;BME280;59274;49.874;9.154;2023-02-03T07:40:17;101365.78;;;7.57;96.42
71465;BME280;59274;49.874;9.154;2023-02-03T07:42:47;101351.47;;;7.57;96.88
71465;BME280;59274;49.874;9.154;2023-02-03T07:45:15;101357.81;;;7.61;95.67
71465;BME280;59274;49.874;9.154;2023-02-03T07:47:43;101348.59;;;7.62;95.14
71465;BME280;59274;49.874;9.154;2023-02-03T07:50:10;101356.84;;;7.65;95.30
71465;BME280;59274;49.874;9.154;2023-02-03T07:52:36;101386.44;;;7.62;96.08
71465;BME280;59274;49.874;9.154;2023-02-03T07:55:02;101380.88;;;7.67;95.19
71465;BME280;59274;49.874;9.154;2023-02-03T07:57:27;101387.19;;;7.71;94.57
71465;BME280;59274;49.874;9.154;2023-02-03T07:59:53;101390.53;;;7.68;94.62
71465;BME280;59274;49.874;9.154;2023-02-03T08:02:18;101375.41;;;7.75;93.64
71465;BME280;59274;49.874;9.154;2023-02-03T08:04:44;101362.22;;;7.74;93.87
71465;BME280;59274;49.874;9.154;2023-02-03T08:07:09;101380.69;;;7.72;93.81
71465;BME280;59274;49.874;9.154;2023-02-03T08:09:34;101396.25;;;7.75;93.70
71465;BME280;59274;49.874;9.154;2023-02-03T08:12:00;101382.09;;;7.78;93.43
71465;BME280;59274;49.874;9.154;2023-02-03T08:14:25;101371.41;;;7.81;93.17
71465;BME280;59274;49.874;9.154;2023-02-03T08:16:51;101395.28;;;7.79;93.74
71465;BME280;59274;49.874;9.154;2023-02-03T08:19:16;101386.50;;;7.82;93.11
71465;BME280;59274;49.874;9.154;2023-02-03T08:21:41;101381.56;;;7.84;92.84
71465;BME280;59274;49.874;9.154;2023-02-03T08:24:07;101381.88;;;7.83;92.67
71465;BME280;59274;49.874;9.154;2023-02-03T08:26:35;101373.47;;;7.84;93.36
71465;BME280;59274;49.874;9.154;2023-02-03T08:29:00;101380.25;;;7.91;92.78
71465;BME280;59274;49.874;9.154;2023-02-03T08:31:25;101381.38;;;7.90;92.97
71465;BME280;59274;49.874;9.154;2023-02-03T08:33:51;101367.69;;;7.95;92.57
71465;BME280;59274;49.874;9.154;2023-02-03T08:36:16;101386.63;;;7.95;92.43
71465;BME280;59274;49.874;9.154;2023-02-03T08:38:42;101382.81;;;7.96;92.49
71465;BME280;59274;49.874;9.154;2023-02-03T08:41:09;101373.03;;;8.03;92.32
71465;BME280;59274;49.874;9.154;2023-02-03T08:43:35;101358.41;;;8.04;91.85
71465;BME280;59274;49.874;9.154;2023-02-03T08:46:03;101360.69;;;7.94;91.66
71465;BME280;59274;49.874;9.154;2023-02-03T08:48:29;101363.09;;;7.95;92.45
71465;BME280;59274;49.874;9.154;2023-02-03T08:50:54;101361.16;;;7.96;91.96
71465;BME280;59274;49.874;9.154;2023-02-03T08:53:19;101364.63;;;7.96;92.04
71465;BME280;59274;49.874;9.154;2023-02-03T08:55:45;101360.50;;;7.99;91.67
71465;BME280;59274;49.874;9.154;2023-02-03T08:58:10;101363.97;;;8.08;90.83
71465;BME280;59274;49.874;9.154;2023-02-03T09:00:36;101356.97;;;8.07;90.69
71465;BME280;59274;49.874;9.154;2023-02-03T09:03:01;101369.03;;;8.09;90.69
71465;BME280;59274;49.874;9.154;2023-02-03T09:05:30;101376.97;;;8.14;90.31
71465;BME280;59274;49.874;9.154;2023-02-03T09:07:56;101370.28;;;8.12;90.35
71465;BME280;59274;49.874;9.154;2023-02-03T09:10:21;101358.81;;;8.15;90.04
71465;BME280;59274;49.874;9.154;2023-02-03T09:12:47;101361.22;;;8.16;90.20
71465;BME280;59274;49.874;9.154;2023-02-03T09:15:12;101359.28;;;8.17;89.79
71465;BME280;59274;49.874;9.154;2023-02-03T09:17:38;101355.00;;;8.16;89.74
71465;BME280;59274;49.874;9.154;2023-02-03T09:20:04;101355.13;;;8.19;90.02
71465;BME280;59274;49.874;9.154;2023-02-03T09:22:30;101349.38;;;8.21;89.90
71465;BME280;59274;49.874;9.154;2023-02-03T09:24:55;101343.78;;;8.26;89.08
71465;BME280;59274;49.874;9.154;2023-02-03T09:27:21;101350.28;;;8.34;88.64
71465;BME280;59274;49.874;9.154;2023-02-03T09:29:46;101359.94;;;8.43;87.82
71465;BME280;59274;49.874;9.154;2023-02-03T09:32:12;101358.66;;;8.41;88.36
71465;BME280;59274;49.874;9.154;2023-02-03T09:34:37;101369.28;;;8.46;87.28
71465;BME280;59274;49.874;9.154;2023-02-03T09:37:06;101368.84;;;8.44;88.02
71465;BME280;59274;49.874;9.154;2023-02-03T09:39:31;101362.31;;;8.45;87.73
71465;BME280;59274;49.874;9.154;2023-02-03T09:42:22;101377.88;;;8.48;87.85
71465;BME280;59274;49.874;9.154;2023-02-03T09:45:04;101371.56;;;8.44;87.04
71465;BME280;59274;49.874;9.154;2023-02-03T09:47:38;101365.28;;;8.31;88.57
71465;BME280;59274;49.874;9.154;2023-02-03T09:50:10;101367.78;;;8.36;88.05
71465;BME280;59274;49.874;9.154;2023-02-03T09:52:38;101367.06;;;8.48;86.56
71465;BME280;59274;49.874;9.154;2023-02-03T09:57:43;101355.16;;;8.61;86.41
71465;BME280;59274;49.874;9.154;2023-02-03T10:00:35;101357.44;;;8.59;85.64
71465;BME280;59274;49.874;9.154;2023-02-03T10:03:16;101351.34;;;8.62;84.67
71465;BME280;59274;49.874;9.154;2023-02-03T10:11:16;101339.91;;;8.77;84.66
71465;BME280;59274;49.874;9.154;2023-02-03T10:16:23;101324.22;;;8.83;83.52
71465;BME280;59274;49.874;9.154;2023-02-03T10:18:54;101332.25;;;8.79;83.87
71465;BME280;59274;49.874;9.154;2023-02-03T10:21:42;101328.69;;;8.99;83.37
71465;BME280;59274;49.874;9.154;2023-02-03T10:24:13;101308.72;;;9.04;83.28
71465;BME280;59274;49.874;9.154;2023-02-03T10:26:41;101313.34;;;9.03;83.68
71465;BME280;59274;49.874;9.154;2023-02-03T10:29:34;101315.16;;;9.12;83.19
71465;BME280;59274;49.874;9.154;2023-02-03T10:32:00;101306.63;;;9.22;82.45
71465;BME280;59274;49.874;9.154;2023-02-03T10:34:26;101307.75;;;9.21;81.94
71465;BME280;59274;49.874;9.154;2023-02-03T10:37:00;101302.56;;;9.28;81.72
71465;BME280;59274;49.874;9.154;2023-02-03T10:39:49;101300.06;;;9.23;82.50
71465;BME280;59274;49.874;9.154;2023-02-03T10:42:16;101292.50;;;9.28;82.33
71465;BME280;59274;49.874;9.154;2023-02-03T10:44:46;101303.34;;;9.28;82.29
71465;BME280;59274;49.874;9.154;2023-02-03T10:47:33;101311.03;;;9.26;82.33
71465;BME280;59274;49.874;9.154;2023-02-03T10:50:16;101293.06;;;9.22;82.28
71465;BME280;59274;49.874;9.154;2023-02-03T10:52:41;101312.47;;;9.24;82.43
71465;BME280;59274;49.874;9.154;2023-02-03T10:55:27;101320.84;;;9.19;82.75
71465;BME280;59274;49.874;9.154;2023-02-03T10:57:55;101306.63;;;9.22;82.78
71465;BME280;59274;49.874;9.154;2023-02-03T11:00:22;101315.00;;;9.29;81.40
71465;BME280;59274;49.874;9.154;2023-02-03T11:03:02;101307.53;;;9.38;81.49
71465;BME280;59274;49.874;9.154;2023-02-03T11:05:28;101311.03;;;9.26;82.42
71465;BME280;59274;49.874;9.154;2023-02-03T11:07:54;101308.41;;;9.18;81.93
71465;BME280;59274;49.874;9.154;2023-02-03T11:10:34;101296.53;;;9.10;82.04
71465;BME280;59274;49.874;9.154;2023-02-03T11:13:24;101301.72;;;9.03;82.92
71465;BME280;59274;49.874;9.154;2023-02-03T11:15:51;101284.78;;;8.94;82.27
71465;BME280;59274;49.874;9.154;2023-02-03T11:21:20;101291.56;;;9.00;83.07
71465;BME280;59274;49.874;9.154;2023-02-03T11:26:38;101280.75;;;9.12;82.40
71465;BME280;59274;49.874;9.154;2023-02-03T11:29:13;101274.66;;;9.15;82.07
71465;BME280;59274;49.874;9.154;2023-02-03T11:31:46;101282.44;;;9.17;82.28
71465;BME280;59274;49.874;9.154;2023-02-03T11:34:18;101278.50;;;9.26;82.84
71465;BME280;59274;49.874;9.154;2023-02-03T11:36:48;101258.06;;;9.29;82.06
71465;BME280;59274;49.874;9.154;2023-02-03T11:39:23;101271.50;;;9.25;82.81
71465;BME280;59274;49.874;9.154;2023-02-03T11:41:50;101256.38;;;9.36;82.49
71465;BME280;59274;49.874;9.154;2023-02-03T11:44:26;101279.75;;;9.29;82.32
71465;BME280;59274;49.874;9.154;2023-02-03T11:47:06;101268.56;;;9.30;83.00
71465;BME280;59274;49.874;9.154;2023-02-03T11:52:05;101279.53;;;9.58;82.80
71465;BME280;59274;49.874;9.154;2023-02-03T11:57:39;101289.00;;;9.40;83.61
71465;BME280;59274;49.874;9.154;2023-02-03T12:03:14;101274.75;;;9.19;85.00
71465;BME280;59274;49.874;9.154;2023-02-03T12:05:58;101246.44;;;9.16;85.24
71465;BME280;59274;49.874;9.154;2023-02-03T12:08:36;101258.72;;;9.26;85.20
71465;BME280;59274;49.874;9.154;2023-02-03T12:11:09;101248.44;;;9.07;85.90
71465;BME280;59274;49.874;9.154;2023-02-03T12:13:59;101252.50;;;9.13;86.06
71465;BME280;59274;49.874;9.154;2023-02-03T12:19:28;101244.81;;;9.03;87.21
71465;BME280;59274;49.874;9.154;2023-02-03T12:22:01;101226.31;;;9.05;88.22
71465;BME280;59274;49.874;9.154;2023-02-03T12:29:40;101214.66;;;9.04;88.38
71465;BME280;59274;49.874;9.154;2023-02-03T12:35:17;101198.50;;;8.96;89.42
71465;BME280;59274;49.874;9.154;2023-02-03T12:37:49;101194.13;;;8.79;90.87
71465;BME280;59274;49.874;9.154;2023-02-03T12:42:52;101183.59;;;8.66;91.47
71465;BME280;59274;49.874;9.154;2023-02-03T12:45:26;101185.03;;;8.63;91.81
71465;BME280;59274;49.874;9.154;2023-02-03T12:50:32;101211.47;;;8.66;91.83
71465;BME280;59274;49.874;9.154;2023-02-03T12:55:35;101226.44;;;8.63;92.67
71465;BME280;59274;49.874;9.154;2023-02-03T12:58:18;101232.66;;;8.64;92.68
71465;BME280;59274;49.874;9.154;2023-02-03T13:01:05;101231.53;;;8.65;92.42
71465;BME280;59274;49.874;9.154;2023-02-03T13:03:54;101230.06;;;8.68;92.60
71465;BME280;59274;49.874;9.154;2023-02-03T13:09:04;101215.22;;;8.74;92.67
71465;BME280;59274;49.874;9.154;2023-02-03T13:11:45;101220.28;;;8.75;92.39
71465;BME280;59274;49.874;9.154;2023-02-03T13:14:35;101203.53;;;8.61;95.08
71465;BME280;59274;49.874;9.154;2023-02-03T13:17:10;101196.66;;;8.51;94.80
71465;BME280;59274;49.874;9.154;2023-02-03T13:19:44;101187.72;;;8.51;95.55
71465;BME280;59274;49.874;9.154;2023-02-03T13:22:12;101181.19;;;8.52;95.56
71465;BME280;59274;49.874;9.154;2023-02-03T13:24:42;101182.06;;;8.44;96.18
71465;BME280;59274;49.874;9.154;2023-02-03T13:29:49;101171.66;;;8.34;98.38
71465;BME280;59274;49.874;9.154;2023-02-03T13:32:53;101188.88;;;8.29;98.94
71465;BME280;59274;49.874;9.154;2023-02-03T13:40:34;101196.06;;;8.25;100.00
71465;BME280;59274;49.874;9.154;2023-02-03T13:43:11;101189.41;;;8.22;99.74
71465;BME280;59274;49.874;9.154;2023-02-03T13:45:48;101190.84;;;8.20;99.60
71465;BME280;59274;49.874;9.154;2023-02-03T13:48:26;101196.41;;;8.23;100.00
71465;BME280;59274;49.874;9.154;2023-02-03T13:51:11;101189.84;;;8.24;100.00
71465;BME280;59274;49.874;9.154;2023-02-03T13:53:39;101194.56;;;8.15;100.00
71465;BME280;59274;49.874;9.154;2023-02-03T13:56:07;101203.75;;;8.02;100.00
71465;BME280;59274;49.874;9.154;2023-02-03T13:58:40;101193.97;;;7.89;100.00
71465;BME280;59274;49.874;9.154;2023-02-03T14:01:36;101192.28;;;7.84;100.00
71465;BME280;59274;49.874;9.154;2023-02-03T14:17:52;101195.97;;;7.80;100.00
71465;BME280;59274;49.874;9.154;2023-02-03T14:19:53;101196.16;;;7.75;100.00
71465;BME280;59274;49.874;9.154;2023-02-03T14:22:19;101190.75;;;7.75;100.00
71465;BME280;59274;49.874;9.154;2023-02-03T14:24:47;101189.34;;;7.69;100.00
71465;BME280;59274;49.874;9.154;2023-02-03T14:27:21;101189.56;;;7.64;100.00
71465;BME280;59274;49.874;9.154;2023-02-03T14:30:11;101190.69;;;7.63;100.00
71465;BME280;59274;49.874;9.154;2023-02-03T14:32:47;101196.41;;;7.61;100.00
71465;BME280;59274;49.874;9.154;2023-02-03T14:35:18;101210.72;;;7.62;100.00
71465;BME280;59274;49.874;9.154;2023-02-03T14:37:51;101221.53;;;7.62;100.00
71465;BME280;59274;49.874;9.154;2023-02-03T14:40:55;101215.00;;;7.63;100.00
71465;BME280;59274;49.874;9.154;2023-02-03T14:43:37;101221.22;;;7.63;100.00
71465;BME280;59274;49.874;9.154;2023-02-03T14:46:32;101220.59;;;7.58;100.00